sensor_id;sensor_type;location;lat;lon;timestamp;P1;durP1;ratioP1;P2;durP2;ratioP2
69253;SDS011;56364;41.816;12.448;2023-11-19T00:00:03;18.20;;;7.05;;
69253;SDS011;56364;41.816;12.448;2023-11-19T00:05:12;16.92;;;7.18;;
69253;SDS011;56364;41.816;12.448;2023-11-19T00:23:42;19.25;;;8.40;;
69253;SDS011;56364;41.816;12.448;2023-11-19T00:26:09;19.25;;;7.47;;
69253;SDS011;56364;41.816;12.448;2023-11-19T00:28:35;18.48;;;7.97;;
69253;SDS011;56364;41.816;12.448;2023-11-19T00:31:03;17.92;;;8.88;;
69253;SDS011;56364;41.816;12.448;2023-11-19T00:33:30;23.38;;;8.52;;
69253;SDS011;56364;41.816;12.448;2023-11-19T00:35:56;19.25;;;8.75;;
69253;SDS011;56364;41.816;12.448;2023-11-19T00:38:22;22.48;;;9.20;;
69253;SDS011;56364;41.816;12.448;2023-11-19T00:40:48;24.02;;;8.65;;
69253;SDS011;56364;41.816;12.448;2023-11-19T00:43:14;16.10;;;8.05;;
69253;SDS011;56364;41.816;12.448;2023-11-19T00:45:40;27.88;;;8.55;;
69253;SDS011;56364;41.816;12.448;2023-11-19T00:48:06;20.38;;;8.85;;
69253;SDS011;56364;41.816;12.448;2023-11-19T01:08:43;19.30;;;6.90;;
69253;SDS011;56364;41.816;12.448;2023-11-19T01:13:35;19.58;;;8.00;;
69253;SDS011;56364;41.816;12.448;2023-11-19T01:16:04;15.63;;;7.20;;
69253;SDS011;56364;41.816;12.448;2023-11-19T01:18:31;18.08;;;8.40;;
69253;SDS011;56364;41.816;12.448;2023-11-19T01:20:58;14.63;;;6.97;;
69253;SDS011;56364;41.816;12.448;2023-11-19T01:23:24;16.40;;;6.72;;
69253;SDS011;56364;41.816;12.448;2023-11-19T01:25:50;13.25;;;6.78;;
69253;SDS011;56364;41.816;12.448;2023-11-19T01:28:16;15.77;;;7.57;;
69253;SDS011;56364;41.816;12.448;2023-11-19T01:30:42;19.45;;;7.35;;
69253;SDS011;56364;41.816;12.448;2023-11-19T01:33:08;12.13;;;6.22;;
69253;SDS011;56364;41.816;12.448;2023-11-19T01:35:34;18.63;;;7.05;;
69253;SDS011;56364;41.816;12.448;2023-11-19T01:38:00;16.95;;;6.53;;
69253;SDS011;56364;41.816;12.448;2023-11-19T01:40:26;16.20;;;6.35;;
69253;SDS011;56364;41.816;12.448;2023-11-19T01:42:52;17.27;;;7.07;;
69253;SDS011;56364;41.816;12.448;2023-11-19T01:45:29;15.70;;;5.97;;
69253;SDS011;56364;41.816;12.448;2023-11-19T01:47:58;11.98;;;6.05;;
69253;SDS011;56364;41.816;12.448;2023-11-19T01:50:25;14.90;;;6.35;;
69253;SDS011;56364;41.816;12.448;2023-11-19T01:52:54;18.52;;;7.57;;
69253;SDS011;56364;41.816;12.448;2023-11-19T01:55:22;19.15;;;6.93;;
69253;SDS011;56364;41.816;12.448;2023-11-19T01:57:49;17.42;;;6.20;;
69253;SDS011;56364;41.816;12.448;2023-11-19T02:00:16;12.38;;;5.47;;
69253;SDS011;56364;41.816;12.448;2023-11-19T02:02:43;12.57;;;5.80;;
69253;SDS011;56364;41.816;12.448;2023-11-19T02:05:12;14.70;;;5.50;;
69253;SDS011;56364;41.816;12.448;2023-11-19T02:07:39;16.60;;;5.75;;
69253;SDS011;56364;41.816;12.448;2023-11-19T02:10:05;13.98;;;5.15;;
69253;SDS011;56364;41.816;12.448;2023-11-19T02:12:37;14.68;;;5.47;;
69253;SDS011;56364;41.816;12.448;2023-11-19T02:15:03;11.13;;;5.15;;
69253;SDS011;56364;41.816;12.448;2023-11-19T02:17:31;11.35;;;5.75;;
69253;SDS011;56364;41.816;12.448;2023-11-19T02:19:59;11.48;;;4.43;;
69253;SDS011;56364;41.816;12.448;2023-11-19T02:22:25;13.05;;;5.47;;
69253;SDS011;56364;41.816;12.448;2023-11-19T02:24:53;10.60;;;4.97;;
69253;SDS011;56364;41.816;12.448;2023-11-19T02:27:43;12.82;;;5.13;;
69253;SDS011;56364;41.816;12.448;2023-11-19T02:30:11;12.25;;;4.10;;
69253;SDS011;56364;41.816;12.448;2023-11-19T02:32:42;9.90;;;4.45;;
69253;SDS011;56364;41.816;12.448;2023-11-19T02:35:08;10.18;;;4.90;;
69253;SDS011;56364;41.816;12.448;2023-11-19T02:37:34;11.98;;;4.05;;
69253;SDS011;56364;41.816;12.448;2023-11-19T02:40:00;11.02;;;5.05;;
69253;SDS011;56364;41.816;12.448;2023-11-19T02:42:30;9.82;;;4.72;;
69253;SDS011;56364;41.816;12.448;2023-11-19T02:47:22;10.50;;;4.43;;
69253;SDS011;56364;41.816;12.448;2023-11-19T02:49:49;10.60;;;4.55;;
69253;SDS011;56364;41.816;12.448;2023-11-19T02:52:15;15.68;;;4.78;;
69253;SDS011;56364;41.816;12.448;2023-11-19T02:54:42;12.70;;;4.65;;
69253;SDS011;56364;41.816;12.448;2023-11-19T02:57:08;11.55;;;4.57;;
69253;SDS011;56364;41.816;12.448;2023-11-19T02:59:38;10.55;;;3.92;;
69253;SDS011;56364;41.816;12.448;2023-11-19T03:02:06;10.43;;;4.47;;
69253;SDS011;56364;41.816;12.448;2023-11-19T03:04:36;13.02;;;4.32;;
69253;SDS011;56364;41.816;12.448;2023-11-19T03:07:04;9.13;;;3.85;;
69253;SDS011;56364;41.816;12.448;2023-11-19T03:09:31;10.90;;;4.60;;
69253;SDS011;56364;41.816;12.448;2023-11-19T03:11:57;12.65;;;4.05;;
69253;SDS011;56364;41.816;12.448;2023-11-19T03:14:23;8.07;;;3.97;;
69253;SDS011;56364;41.816;12.448;2023-11-19T03:16:49;13.55;;;3.97;;
69253;SDS011;56364;41.816;12.448;2023-11-19T03:21:41;10.43;;;3.38;;
69253;SDS011;56364;41.816;12.448;2023-11-19T03:24:07;9.48;;;4.28;;
69253;SDS011;56364;41.816;12.448;2023-11-19T03:26:34;10.90;;;4.38;;
69253;SDS011;56364;41.816;12.448;2023-11-19T03:29:00;9.02;;;4.43;;
69253;SDS011;56364;41.816;12.448;2023-11-19T03:31:26;10.88;;;4.03;;
69253;SDS011;56364;41.816;12.448;2023-11-19T03:33:52;13.20;;;4.32;;
69253;SDS011;56364;41.816;12.448;2023-11-19T03:38:44;12.20;;;3.80;;
69253;SDS011;56364;41.816;12.448;2023-11-19T03:41:14;10.18;;;3.42;;
69253;SDS011;56364;41.816;12.448;2023-11-19T03:43:42;12.23;;;4.18;;
69253;SDS011;56364;41.816;12.448;2023-11-19T03:46:20;13.43;;;3.92;;
69253;SDS011;56364;41.816;12.448;2023-11-19T03:48:47;12.32;;;4.75;;
69253;SDS011;56364;41.816;12.448;2023-11-19T03:51:13;10.15;;;4.13;;
69253;SDS011;56364;41.816;12.448;2023-11-19T03:53:46;10.77;;;4.38;;
69253;SDS011;56364;41.816;12.448;2023-11-19T03:56:12;15.20;;;4.05;;
69253;SDS011;56364;41.816;12.448;2023-11-19T03:58:38;8.70;;;3.83;;
69253;SDS011;56364;41.816;12.448;2023-11-19T04:01:05;7.03;;;3.88;;
69253;SDS011;56364;41.816;12.448;2023-11-19T04:05:57;8.13;;;3.05;;
69253;SDS011;56364;41.816;12.448;2023-11-19T04:08:24;10.70;;;3.83;;
69253;SDS011;56364;41.816;12.448;2023-11-19T04:10:50;7.40;;;3.30;;
69253;SDS011;56364;41.816;12.448;2023-11-19T04:13:16;9.73;;;3.95;;
69253;SDS011;56364;41.816;12.448;2023-11-19T04:15:42;10.07;;;3.38;;
69253;SDS011;56364;41.816;12.448;2023-11-19T04:18:08;9.02;;;3.58;;
69253;SDS011;56364;41.816;12.448;2023-11-19T04:20:34;9.43;;;3.40;;
69253;SDS011;56364;41.816;12.448;2023-11-19T04:23:01;9.13;;;3.40;;
69253;SDS011;56364;41.816;12.448;2023-11-19T04:25:27;7.47;;;3.47;;
69253;SDS011;56364;41.816;12.448;2023-11-19T04:27:53;9.02;;;3.20;;
69253;SDS011;56364;41.816;12.448;2023-11-19T04:30:19;8.40;;;3.67;;
69253;SDS011;56364;41.816;12.448;2023-11-19T04:32:50;13.35;;;3.95;;
69253;SDS011;56364;41.816;12.448;2023-11-19T04:35:16;9.52;;;3.58;;
69253;SDS011;56364;41.816;12.448;2023-11-19T04:37:42;7.10;;;3.20;;
69253;SDS011;56364;41.816;12.448;2023-11-19T04:40:08;10.45;;;2.92;;
69253;SDS011;56364;41.816;12.448;2023-11-19T04:42:34;9.13;;;2.97;;
69253;SDS011;56364;41.816;12.448;2023-11-19T04:45:00;7.28;;;3.17;;
69253;SDS011;56364;41.816;12.448;2023-11-19T04:47:27;6.97;;;2.85;;
69253;SDS011;56364;41.816;12.448;2023-11-19T04:49:56;6.95;;;2.92;;
69253;SDS011;56364;41.816;12.448;2023-11-19T04:52:22;7.88;;;2.95;;
69253;SDS011;56364;41.816;12.448;2023-11-19T04:54:48;6.50;;;2.85;;
69253;SDS011;56364;41.816;12.448;2023-11-19T04:57:17;13.48;;;2.85;;
69253;SDS011;56364;41.816;12.448;2023-11-19T04:59:46;9.30;;;3.25;;
69253;SDS011;56364;41.816;12.448;2023-11-19T05:02:12;10.32;;;3.80;;
69253;SDS011;56364;41.816;12.448;2023-11-19T05:04:43;6.70;;;3.55;;
69253;SDS011;56364;41.816;12.448;2023-11-19T05:07:14;11.75;;;3.38;;
69253;SDS011;56364;41.816;12.448;2023-11-19T05:09:40;6.03;;;2.67;;
69253;SDS011;56364;41.816;12.448;2023-11-19T05:12:08;5.70;;;2.50;;
69253;SDS011;56364;41.816;12.448;2023-11-19T05:14:37;7.95;;;2.75;;
69253;SDS011;56364;41.816;12.448;2023-11-19T05:17:03;7.00;;;2.92;;
69253;SDS011;56364;41.816;12.448;2023-11-19T05:19:29;7.53;;;2.65;;
69253;SDS011;56364;41.816;12.448;2023-11-19T05:21:55;6.40;;;2.33;;
69253;SDS011;56364;41.816;12.448;2023-11-19T05:26:47;7.05;;;2.67;;
69253;SDS011;56364;41.816;12.448;2023-11-19T05:29:15;5.82;;;2.80;;
69253;SDS011;56364;41.816;12.448;2023-11-19T05:31:42;5.78;;;2.70;;
69253;SDS011;56364;41.816;12.448;2023-11-19T05:34:12;5.53;;;2.28;;
69253;SDS011;56364;41.816;12.448;2023-11-19T05:36:42;4.85;;;1.85;;
69253;SDS011;56364;41.816;12.448;2023-11-19T05:39:08;6.80;;;2.05;;
69253;SDS011;56364;41.816;12.448;2023-11-19T05:41:36;4.07;;;2.30;;
69253;SDS011;56364;41.816;12.448;2023-11-19T05:44:02;8.13;;;2.40;;
69253;SDS011;56364;41.816;12.448;2023-11-19T05:46:28;6.85;;;1.98;;
69253;SDS011;56364;41.816;12.448;2023-11-19T05:48:54;4.63;;;1.83;;
69253;SDS011;56364;41.816;12.448;2023-11-19T05:51:20;2.97;;;1.73;;
69253;SDS011;56364;41.816;12.448;2023-11-19T05:53:48;5.93;;;2.05;;
69253;SDS011;56364;41.816;12.448;2023-11-19T05:56:15;7.07;;;2.50;;
69253;SDS011;56364;41.816;12.448;2023-11-19T05:58:46;8.23;;;2.80;;
69253;SDS011;56364;41.816;12.448;2023-11-19T06:01:13;7.90;;;2.50;;
69253;SDS011;56364;41.816;12.448;2023-11-19T06:03:39;5.85;;;2.20;;
69253;SDS011;56364;41.816;12.448;2023-11-19T06:06:05;6.03;;;2.42;;
69253;SDS011;56364;41.816;12.448;2023-11-19T06:10:58;4.18;;;1.85;;
69253;SDS011;56364;41.816;12.448;2023-11-19T06:13:26;5.43;;;1.92;;
69253;SDS011;56364;41.816;12.448;2023-11-19T06:15:52;5.88;;;1.90;;
69253;SDS011;56364;41.816;12.448;2023-11-19T06:18:18;3.00;;;1.92;;
69253;SDS011;56364;41.816;12.448;2023-11-19T06:20:45;3.53;;;1.73;;
69253;SDS011;56364;41.816;12.448;2023-11-19T06:23:11;5.15;;;2.10;;
69253;SDS011;56364;41.816;12.448;2023-11-19T06:25:38;4.38;;;1.73;;
69253;SDS011;56364;41.816;12.448;2023-11-19T06:28:04;9.82;;;2.55;;
69253;SDS011;56364;41.816;12.448;2023-11-19T06:30:30;6.97;;;1.95;;
69253;SDS011;56364;41.816;12.448;2023-11-19T06:32:57;5.18;;;2.13;;
69253;SDS011;56364;41.816;12.448;2023-11-19T06:35:28;3.63;;;2.05;;
69253;SDS011;56364;41.816;12.448;2023-11-19T06:38:01;6.85;;;2.35;;
69253;SDS011;56364;41.816;12.448;2023-11-19T06:42:54;9.88;;;1.88;;
69253;SDS011;56364;41.816;12.448;2023-11-19T06:45:20;4.20;;;2.13;;
69253;SDS011;56364;41.816;12.448;2023-11-19T06:47:46;2.45;;;1.63;;
69253;SDS011;56364;41.816;12.448;2023-11-19T06:50:12;5.15;;;2.30;;
69253;SDS011;56364;41.816;12.448;2023-11-19T06:52:40;5.05;;;1.95;;
69253;SDS011;56364;41.816;12.448;2023-11-19T06:55:06;6.50;;;2.65;;
69253;SDS011;56364;41.816;12.448;2023-11-19T06:57:32;5.63;;;2.55;;
69253;SDS011;56364;41.816;12.448;2023-11-19T06:59:58;4.93;;;2.30;;
69253;SDS011;56364;41.816;12.448;2023-11-19T07:02:25;5.53;;;2.67;;
69253;SDS011;56364;41.816;12.448;2023-11-19T07:04:51;4.40;;;2.10;;
69253;SDS011;56364;41.816;12.448;2023-11-19T07:07:17;6.78;;;2.83;;
69253;SDS011;56364;41.816;12.448;2023-11-19T07:09:43;5.90;;;2.42;;
69253;SDS011;56364;41.816;12.448;2023-11-19T07:12:09;6.15;;;3.00;;
69253;SDS011;56364;41.816;12.448;2023-11-19T07:14:35;9.60;;;2.58;;
69253;SDS011;56364;41.816;12.448;2023-11-19T07:17:01;6.10;;;2.72;;
69253;SDS011;56364;41.816;12.448;2023-11-19T07:19:28;3.42;;;1.77;;
69253;SDS011;56364;41.816;12.448;2023-11-19T07:21:54;6.28;;;2.22;;
69253;SDS011;56364;41.816;12.448;2023-11-19T07:24:20;4.65;;;1.88;;
69253;SDS011;56364;41.816;12.448;2023-11-19T07:26:46;4.05;;;2.10;;
69253;SDS011;56364;41.816;12.448;2023-11-19T07:29:13;7.75;;;2.00;;
69253;SDS011;56364;41.816;12.448;2023-11-19T07:31:41;6.43;;;1.85;;
69253;SDS011;56364;41.816;12.448;2023-11-19T07:34:09;6.28;;;2.53;;
69253;SDS011;56364;41.816;12.448;2023-11-19T07:36:36;5.65;;;2.13;;
69253;SDS011;56364;41.816;12.448;2023-11-19T07:41:29;2.33;;;1.48;;
69253;SDS011;56364;41.816;12.448;2023-11-19T07:43:56;3.90;;;1.60;;
69253;SDS011;56364;41.816;12.448;2023-11-19T07:46:22;5.85;;;2.20;;
69253;SDS011;56364;41.816;12.448;2023-11-19T07:48:48;5.43;;;1.73;;
69253;SDS011;56364;41.816;12.448;2023-11-19T07:51:14;5.78;;;2.35;;
69253;SDS011;56364;41.816;12.448;2023-11-19T07:53:40;5.95;;;2.20;;
69253;SDS011;56364;41.816;12.448;2023-11-19T07:56:07;4.10;;;1.95;;
69253;SDS011;56364;41.816;12.448;2023-11-19T07:58:39;6.78;;;2.38;;
69253;SDS011;56364;41.816;12.448;2023-11-19T08:01:05;8.02;;;2.55;;
69253;SDS011;56364;41.816;12.448;2023-11-19T08:03:44;8.85;;;3.33;;
69253;SDS011;56364;41.816;12.448;2023-11-19T08:06:10;9.75;;;2.35;;
69253;SDS011;56364;41.816;12.448;2023-11-19T08:08:36;9.05;;;2.65;;
69253;SDS011;56364;41.816;12.448;2023-11-19T08:11:04;5.53;;;2.28;;
69253;SDS011;56364;41.816;12.448;2023-11-19T08:13:32;6.82;;;2.20;;
69253;SDS011;56364;41.816;12.448;2023-11-19T08:15:58;7.70;;;2.55;;
69253;SDS011;56364;41.816;12.448;2023-11-19T08:18:24;7.03;;;2.60;;
69253;SDS011;56364;41.816;12.448;2023-11-19T08:20:50;7.45;;;2.85;;
69253;SDS011;56364;41.816;12.448;2023-11-19T08:23:18;6.55;;;2.72;;
69253;SDS011;56364;41.816;12.448;2023-11-19T08:25:45;7.53;;;2.58;;
69253;SDS011;56364;41.816;12.448;2023-11-19T08:28:11;5.22;;;2.47;;
69253;SDS011;56364;41.816;12.448;2023-11-19T08:30:37;6.38;;;2.88;;
69253;SDS011;56364;41.816;12.448;2023-11-19T08:33:03;6.47;;;2.45;;
69253;SDS011;56364;41.816;12.448;2023-11-19T08:35:31;6.68;;;2.60;;
69253;SDS011;56364;41.816;12.448;2023-11-19T08:37:57;7.50;;;2.72;;
69253;SDS011;56364;41.816;12.448;2023-11-19T08:40:24;4.97;;;2.53;;
69253;SDS011;56364;41.816;12.448;2023-11-19T08:42:53;6.60;;;2.65;;
69253;SDS011;56364;41.816;12.448;2023-11-19T08:45:19;6.22;;;2.92;;
69253;SDS011;56364;41.816;12.448;2023-11-19T08:47:45;7.22;;;2.40;;
69253;SDS011;56364;41.816;12.448;2023-11-19T08:50:11;6.28;;;2.70;;
69253;SDS011;56364;41.816;12.448;2023-11-19T08:52:37;8.13;;;2.85;;
69253;SDS011;56364;41.816;12.448;2023-11-19T08:55:04;5.10;;;2.13;;
69253;SDS011;56364;41.816;12.448;2023-11-19T08:57:31;7.88;;;3.28;;
69253;SDS011;56364;41.816;12.448;2023-11-19T08:59:57;6.70;;;2.60;;
69253;SDS011;56364;41.816;12.448;2023-11-19T09:04:50;7.00;;;2.97;;
69253;SDS011;56364;41.816;12.448;2023-11-19T09:07:16;8.82;;;2.75;;
69253;SDS011;56364;41.816;12.448;2023-11-19T09:09:42;5.97;;;2.38;;
69253;SDS011;56364;41.816;12.448;2023-11-19T09:12:08;6.43;;;2.50;;
69253;SDS011;56364;41.816;12.448;2023-11-19T09:14:34;7.30;;;3.05;;
69253;SDS011;56364;41.816;12.448;2023-11-19T09:17:00;8.90;;;3.40;;
69253;SDS011;56364;41.816;12.448;2023-11-19T09:19:27;6.80;;;2.67;;
69253;SDS011;56364;41.816;12.448;2023-11-19T09:21:53;7.95;;;2.88;;
69253;SDS011;56364;41.816;12.448;2023-11-19T09:24:19;7.57;;;2.95;;
69253;SDS011;56364;41.816;12.448;2023-11-19T09:34:30;7.55;;;2.58;;
69253;SDS011;56364;41.816;12.448;2023-11-19T09:36:57;7.45;;;2.80;;
69253;SDS011;56364;41.816;12.448;2023-11-19T09:39:23;7.00;;;2.63;;
69253;SDS011;56364;41.816;12.448;2023-11-19T09:41:50;6.68;;;2.75;;
69253;SDS011;56364;41.816;12.448;2023-11-19T09:44:16;5.72;;;2.60;;
69253;SDS011;56364;41.816;12.448;2023-11-19T09:46:44;5.95;;;2.70;;
69253;SDS011;56364;41.816;12.448;2023-11-19T09:49:11;7.75;;;3.17;;
69253;SDS011;56364;41.816;12.448;2023-11-19T09:51:38;7.43;;;2.97;;
69253;SDS011;56364;41.816;12.448;2023-11-19T09:56:32;9.45;;;2.60;;
69253;SDS011;56364;41.816;12.448;2023-11-19T09:58:59;7.03;;;2.70;;
69253;SDS011;56364;41.816;12.448;2023-11-19T10:03:51;5.25;;;2.70;;
69253;SDS011;56364;41.816;12.448;2023-11-19T10:06:20;8.40;;;3.20;;
69253;SDS011;56364;41.816;12.448;2023-11-19T10:11:12;6.43;;;2.85;;
69253;SDS011;56364;41.816;12.448;2023-11-19T10:13:40;9.45;;;3.50;;
69253;SDS011;56364;41.816;12.448;2023-11-19T10:16:13;8.98;;;3.42;;
69253;SDS011;56364;41.816;12.448;2023-11-19T10:18:46;7.53;;;3.28;;
69253;SDS011;56364;41.816;12.448;2023-11-19T10:21:13;6.97;;;2.85;;
69253;SDS011;56364;41.816;12.448;2023-11-19T10:23:55;8.00;;;3.63;;
69253;SDS011;56364;41.816;12.448;2023-11-19T10:26:22;7.20;;;3.05;;
69253;SDS011;56364;41.816;12.448;2023-11-19T10:33:51;8.57;;;3.58;;
69253;SDS011;56364;41.816;12.448;2023-11-19T10:36:18;10.55;;;3.97;;
69253;SDS011;56364;41.816;12.448;2023-11-19T10:38:54;14.95;;;7.03;;
69253;SDS011;56364;41.816;12.448;2023-11-19T10:41:30;9.57;;;3.72;;
69253;SDS011;56364;41.816;12.448;2023-11-19T10:43:57;9.23;;;3.70;;
69253;SDS011;56364;41.816;12.448;2023-11-19T10:46:23;10.25;;;4.03;;
69253;SDS011;56364;41.816;12.448;2023-11-19T10:49:01;10.63;;;3.05;;
69253;SDS011;56364;41.816;12.448;2023-11-19T10:53:53;12.43;;;3.70;;
69253;SDS011;56364;41.816;12.448;2023-11-19T10:56:21;10.45;;;3.55;;
69253;SDS011;56364;41.816;12.448;2023-11-19T10:58:49;11.05;;;3.22;;
69253;SDS011;56364;41.816;12.448;2023-11-19T11:01:20;9.82;;;3.08;;
69253;SDS011;56364;41.816;12.448;2023-11-19T11:03:50;8.60;;;3.28;;
69253;SDS011;56364;41.816;12.448;2023-11-19T11:06:18;13.70;;;3.42;;
69253;SDS011;56364;41.816;12.448;2023-11-19T11:08:44;9.30;;;3.58;;
69253;SDS011;56364;41.816;12.448;2023-11-19T11:11:13;9.85;;;3.75;;
69253;SDS011;56364;41.816;12.448;2023-11-19T11:13:46;9.30;;;3.70;;
69253;SDS011;56364;41.816;12.448;2023-11-19T11:16:14;12.80;;;4.03;;
69253;SDS011;56364;41.816;12.448;2023-11-19T11:18:41;9.80;;;4.43;;
69253;SDS011;56364;41.816;12.448;2023-11-19T11:21:08;9.05;;;3.58;;
69253;SDS011;56364;41.816;12.448;2023-11-19T11:23:52;9.10;;;4.05;;
69253;SDS011;56364;41.816;12.448;2023-11-19T11:28:48;10.38;;;4.30;;
69253;SDS011;56364;41.816;12.448;2023-11-19T11:36:25;14.13;;;4.00;;
69253;SDS011;56364;41.816;12.448;2023-11-19T11:38:51;10.65;;;3.45;;
69253;SDS011;56364;41.816;12.448;2023-11-19T11:41:23;9.45;;;2.50;;
69253;SDS011;56364;41.816;12.448;2023-11-19T11:43:53;5.45;;;1.80;;
69253;SDS011;56364;41.816;12.448;2023-11-19T11:49:07;4.57;;;1.60;;
69253;SDS011;56364;41.816;12.448;2023-11-19T11:54:45;3.10;;;1.30;;
69253;SDS011;56364;41.816;12.448;2023-11-19T11:57:17;7.63;;;2.08;;
69253;SDS011;56364;41.816;12.448;2023-11-19T12:02:16;6.20;;;1.30;;
69253;SDS011;56364;41.816;12.448;2023-11-19T12:04:46;8.20;;;1.58;;
69253;SDS011;56364;41.816;12.448;2023-11-19T12:07:18;4.65;;;1.58;;
69253;SDS011;56364;41.816;12.448;2023-11-19T12:09:52;3.50;;;1.20;;
69253;SDS011;56364;41.816;12.448;2023-11-19T12:12:21;6.75;;;1.42;;
69253;SDS011;56364;41.816;12.448;2023-11-19T12:15:06;3.53;;;1.25;;
69253;SDS011;56364;41.816;12.448;2023-11-19T12:20:02;8.98;;;1.48;;
69253;SDS011;56364;41.816;12.448;2023-11-19T12:22:28;2.20;;;1.05;;
69253;SDS011;56364;41.816;12.448;2023-11-19T12:27:29;6.00;;;1.45;;
69253;SDS011;56364;41.816;12.448;2023-11-19T12:32:22;8.70;;;1.23;;
69253;SDS011;56364;41.816;12.448;2023-11-19T12:34:48;4.45;;;1.05;;
69253;SDS011;56364;41.816;12.448;2023-11-19T12:37:15;6.50;;;1.25;;
69253;SDS011;56364;41.816;12.448;2023-11-19T12:42:08;4.38;;;1.10;;
69253;SDS011;56364;41.816;12.448;2023-11-19T12:44:34;7.75;;;1.08;;
69253;SDS011;56364;41.816;12.448;2023-11-19T12:47:04;4.97;;;1.40;;
69253;SDS011;56364;41.816;12.448;2023-11-19T12:49:32;0.90;;;0.70;;
69253;SDS011;56364;41.816;12.448;2023-11-19T12:51:58;2.53;;;1.05;;
69253;SDS011;56364;41.816;12.448;2023-11-19T12:57:00;2.58;;;1.10;;
69253;SDS011;56364;41.816;12.448;2023-11-19T12:59:26;4.35;;;1.15;;
69253;SDS011;56364;41.816;12.448;2023-11-19T13:01:58;3.15;;;0.80;;
69253;SDS011;56364;41.816;12.448;2023-11-19T13:06:51;3.50;;;0.80;;
69253;SDS011;56364;41.816;12.448;2023-11-19T13:09:23;5.03;;;1.20;;
69253;SDS011;56364;41.816;12.448;2023-11-19T13:11:51;6.55;;;1.27;;
69253;SDS011;56364;41.816;12.448;2023-11-19T13:14:17;5.88;;;1.23;;
69253;SDS011;56364;41.816;12.448;2023-11-19T13:16:44;3.67;;;1.17;;
69253;SDS011;56364;41.816;12.448;2023-11-19T13:19:14;2.03;;;1.00;;
69253;SDS011;56364;41.816;12.448;2023-11-19T13:21:44;3.15;;;1.13;;
69253;SDS011;56364;41.816;12.448;2023-11-19T13:24:12;4.00;;;1.60;;
69253;SDS011;56364;41.816;12.448;2023-11-19T13:26:40;3.17;;;1.10;;
69253;SDS011;56364;41.816;12.448;2023-11-19T13:31:32;3.60;;;1.17;;
69253;SDS011;56364;41.816;12.448;2023-11-19T13:36:24;3.42;;;1.30;;
69253;SDS011;56364;41.816;12.448;2023-11-19T13:38:51;7.15;;;1.38;;
69253;SDS011;56364;41.816;12.448;2023-11-19T13:41:23;7.75;;;1.63;;
69253;SDS011;56364;41.816;12.448;2023-11-19T13:43:51;3.35;;;1.13;;
69253;SDS011;56364;41.816;12.448;2023-11-19T13:46:18;5.60;;;1.20;;
69253;SDS011;56364;41.816;12.448;2023-11-19T13:48:44;4.15;;;0.98;;
69253;SDS011;56364;41.816;12.448;2023-11-19T13:53:36;3.92;;;1.30;;
69253;SDS011;56364;41.816;12.448;2023-11-19T13:56:02;6.97;;;1.13;;
69253;SDS011;56364;41.816;12.448;2023-11-19T13:58:28;2.97;;;1.27;;
69253;SDS011;56364;41.816;12.448;2023-11-19T14:00:55;4.25;;;1.60;;
69253;SDS011;56364;41.816;12.448;2023-11-19T14:05:47;5.03;;;1.52;;
69253;SDS011;56364;41.816;12.448;2023-11-19T14:08:14;2.90;;;1.05;;
69253;SDS011;56364;41.816;12.448;2023-11-19T14:10:40;8.13;;;2.00;;
69253;SDS011;56364;41.816;12.448;2023-11-19T14:15:32;3.55;;;1.30;;
69253;SDS011;56364;41.816;12.448;2023-11-19T14:17:59;7.40;;;1.27;;
69253;SDS011;56364;41.816;12.448;2023-11-19T14:22:51;2.92;;;1.45;;
69253;SDS011;56364;41.816;12.448;2023-11-19T14:25:18;6.70;;;1.50;;
69253;SDS011;56364;41.816;12.448;2023-11-19T14:27:45;1.67;;;0.80;;
69253;SDS011;56364;41.816;12.448;2023-11-19T14:32:42;1.58;;;0.85;;
69253;SDS011;56364;41.816;12.448;2023-11-19T14:35:12;2.78;;;1.13;;
69253;SDS011;56364;41.816;12.448;2023-11-19T14:37:40;5.13;;;1.33;;
69253;SDS011;56364;41.816;12.448;2023-11-19T14:40:07;7.68;;;1.45;;
69253;SDS011;56364;41.816;12.448;2023-11-19T14:42:34;2.55;;;1.23;;
69253;SDS011;56364;41.816;12.448;2023-11-19T14:45:02;3.72;;;1.75;;
69253;SDS011;56364;41.816;12.448;2023-11-19T14:49:57;6.20;;;1.42;;
69253;SDS011;56364;41.816;12.448;2023-11-19T14:54:49;2.03;;;1.27;;
69253;SDS011;56364;41.816;12.448;2023-11-19T14:57:18;1.70;;;1.00;;
69253;SDS011;56364;41.816;12.448;2023-11-19T14:59:44;4.38;;;1.58;;
69253;SDS011;56364;41.816;12.448;2023-11-19T15:04:40;5.63;;;1.90;;
69253;SDS011;56364;41.816;12.448;2023-11-19T15:07:09;4.07;;;1.58;;
69253;SDS011;56364;41.816;12.448;2023-11-19T15:12:07;3.65;;;1.30;;
69253;SDS011;56364;41.816;12.448;2023-11-19T15:14:34;4.65;;;1.33;;
69253;SDS011;56364;41.816;12.448;2023-11-19T15:17:03;6.97;;;1.85;;
69253;SDS011;56364;41.816;12.448;2023-11-19T15:19:30;5.07;;;1.55;;
69253;SDS011;56364;41.816;12.448;2023-11-19T15:21:56;4.93;;;1.38;;
69253;SDS011;56364;41.816;12.448;2023-11-19T15:26:50;4.65;;;1.25;;
69253;SDS011;56364;41.816;12.448;2023-11-19T15:29:17;2.65;;;1.27;;
69253;SDS011;56364;41.816;12.448;2023-11-19T15:34:26;5.45;;;1.27;;
69253;SDS011;56364;41.816;12.448;2023-11-19T15:37:11;2.90;;;1.38;;
69253;SDS011;56364;41.816;12.448;2023-11-19T15:39:58;4.35;;;1.83;;
69253;SDS011;56364;41.816;12.448;2023-11-19T15:42:35;3.90;;;1.58;;
69253;SDS011;56364;41.816;12.448;2023-11-19T15:45:01;4.22;;;1.70;;
69253;SDS011;56364;41.816;12.448;2023-11-19T15:47:31;5.25;;;1.67;;
69253;SDS011;56364;41.816;12.448;2023-11-19T15:50:08;4.82;;;1.42;;
69253;SDS011;56364;41.816;12.448;2023-11-19T15:55:15;5.47;;;2.13;;
69253;SDS011;56364;41.816;12.448;2023-11-19T15:57:41;6.07;;;1.90;;
69253;SDS011;56364;41.816;12.448;2023-11-19T16:02:36;4.40;;;1.70;;
69253;SDS011;56364;41.816;12.448;2023-11-19T16:05:02;8.43;;;1.98;;
69253;SDS011;56364;41.816;12.448;2023-11-19T16:07:30;8.70;;;1.80;;
69253;SDS011;56364;41.816;12.448;2023-11-19T16:12:32;5.10;;;2.00;;
69253;SDS011;56364;41.816;12.448;2023-11-19T16:17:34;6.95;;;1.73;;
69253;SDS011;56364;41.816;12.448;2023-11-19T16:20:03;5.50;;;2.03;;
69253;SDS011;56364;41.816;12.448;2023-11-19T16:22:37;3.28;;;1.55;;
69253;SDS011;56364;41.816;12.448;2023-11-19T16:25:04;7.60;;;1.90;;
69253;SDS011;56364;41.816;12.448;2023-11-19T16:27:31;4.97;;;1.52;;
69253;SDS011;56364;41.816;12.448;2023-11-19T16:29:57;11.20;;;2.13;;
69253;SDS011;56364;41.816;12.448;2023-11-19T16:34:59;7.25;;;1.95;;
69253;SDS011;56364;41.816;12.448;2023-11-19T16:37:26;4.28;;;1.80;;
69253;SDS011;56364;41.816;12.448;2023-11-19T16:39:52;8.13;;;2.20;;
69253;SDS011;56364;41.816;12.448;2023-11-19T16:42:18;7.95;;;2.50;;
69253;SDS011;56364;41.816;12.448;2023-11-19T16:44:47;8.23;;;2.20;;
69253;SDS011;56364;41.816;12.448;2023-11-19T16:47:14;5.97;;;2.15;;
69253;SDS011;56364;41.816;12.448;2023-11-19T16:49:40;7.97;;;2.28;;
69253;SDS011;56364;41.816;12.448;2023-11-19T16:52:07;7.75;;;2.50;;
69253;SDS011;56364;41.816;12.448;2023-11-19T17:10:10;9.63;;;3.15;;
69253;SDS011;56364;41.816;12.448;2023-11-19T17:15:12;10.43;;;3.13;;
69253;SDS011;56364;41.816;12.448;2023-11-19T17:24:09;10.20;;;3.58;;
69253;SDS011;56364;41.816;12.448;2023-11-19T17:26:38;12.20;;;3.92;;
69253;SDS011;56364;41.816;12.448;2023-11-19T17:29:05;12.73;;;3.72;;
69253;SDS011;56364;41.816;12.448;2023-11-19T17:31:32;12.73;;;4.32;;
69253;SDS011;56364;41.816;12.448;2023-11-19T17:33:58;10.73;;;4.03;;
69253;SDS011;56364;41.816;12.448;2023-11-19T17:38:51;8.13;;;3.42;;